ENAT/ALF METAR and TAF weather

Enter ICAO airport designator
Station Type Date Time Source
ENAT METAR 2022/05/23 14:20 UTC NOAA

ENAT 231420Z 22007KT 150V280 9999 FEW025 12/03 Q1012 RMK WIND 700FT 19009KT


Station Type Date Time Source
ENAT Decoded METAR 2022/05/23 14:20 UTC NOAA

Alta Lufthavn, Norway (ENAT) 69-59N 023-22E 3M
May 23, 2022 - 10:20 AM EDT / 2022.05.23 1420 UTC
Wind: from the SW (220 degrees) at 8 MPH (7 KT) (direction variable):0
Visibility: greater than 7 mile(s):0
Sky conditions: mostly clear
Temperature: 53 F (12 C)
Dew Point: 37 F (3 C)
Relative Humidity: 54%
Pressure (altimeter): 29.88 in. Hg (1012 hPa)
ob: ENAT 231420Z 22007KT 150V280 9999 FEW025 12/03 Q1012 RMK WIND 700FT 19009KT
cycle: 14

Station Type Date Time Source
ENAT TAF 2008/11/30 23:00 UTC NOAA

TAF TAF ENAT 302300Z 3023/0102 22005KT 7000 -SN FEW008 BKN020
TEMPO 3023/0102 3000 -SN VV012

Example: see airport list